Portada
METAR-TAF:

METAR-TAF

Aeroports :

Mendoza, Argentina

latitud: 32-50S, longitud: 068-47W, altitud: 705 m

Observació

L'informe es va fer fa 1 hora i 0 minuts, a les 18:00 UTC
Vent 5 kt del Sud-Est
Temperatura 28°C
Humitat 25%
Pressió 1016 hPa
Visibilitat 10 km o més
Escasses núvols a una alçada de 4500 ft

METAR: SAME 181800Z 14005KT 9999 FEW045 28/06 Q1016

Hora: 16:00 (19:00 UTC)

Pronòstic

L'informe es va fer fa 2 hores i 0 minuts, a les 17:00 UTC
Pronòstic vàlid del 18 a les 18 UTC al 19 a les 18 UTC
Vent 15 kt del Sud-Est
Visibilitat 10 km o més
Escasses núvols a una alçada de 4000 ft
Núvols disperses a una alçada de 9000 ft

TAF: SAME 181700Z 1818/1918 14015KT 9999 FEW040 SCT090 TX29/1820Z TN18/1910Z

Observacions i pronòstics meteorològics de més de 4000 aeroports (METAR i TAF).

Les estacions disponibles són els punts grocs i vermells al mapa.

Posi el ratolí al punt desitjat per veure el nom de l'estació.

Feu clic per veure les observacions i els pronòstics meteorològics.

Per canviar el mapa: feu clic els botons verds amb una creu de color negre per apropar; al botó verd amb un guió per allunyar la imatge; o en les fletxes verdes per a mapes adjacents.


METAR-TAF: